Bowling Green Warren County Regional Airport
KBWG : now visible

Airfield :











YOU CAN JOIN US ON...

 
LOGIN :

Register | Disclaimer

   EN    FR    IT 

 









Legend :    VFR   Marginal VFR   IFR   Intensive IFR   Very Intensive IFR
Visi :
Ceiling :
>= 8 km
>= 3000ft
5 to 8 km
1000 to 3000 ft
1500m to 5 km
500 to 1000 ft
800 to 1500m
200 to 500 ft
< 800m
< 200 ft
Symbols :   Thunderstorms  Fog  Heavy snow  Heavy precipitations  Wind > 20 kt






- Airport Elevation : 547 ft


KBWG - Bowling Green Warren County Regional

CURRENT METAR :
  • 110353Z AUTO 19006KT 10SM FEW045 26/22 A3000 RMK AO2 LTG DSNT N SLP151 T02560217

EXPIRED METARs :
  • 110253Z AUTO 15003KT 10SM SCT045 BKN055 26/22 A3000 RMK AO2 SLP154 T02610217 53019
  • 110153Z AUTO 20004KT 10SM CLR 27/22 A2999 RMK AO2 SLP148 T02670217

TAF KBWG
Valid from the 11 at 04:00 until the 12 at 00:00 UTC


110342Z 1104/1124 18004KT P6SM SCT045 BKN060
FM110500 32012G25KT 4SM -TSRA BR BKN035CB
FM110700 36008KT P6SM VCSH OVC040
FM110800 22005KT P6SM BKN080
FM111900 24008KT P6SM VCTS BKN040CB
KZME FIR / North America



MET'MAP, your aeronautical weather chart ! - Copyright ORBIFLY December 2007 - Disclaimer

ORBIFLY MET'MAP TEAM :

Programming & Development : Alexandra Zaïnal
Concept & original design : Baudouin d'Aumeries
Assistance for programming : Marc-Olivier Méhu
Technical & hardware support : Manuel Goepfert

Contact : metmap@orbifly.com




SOURCES & CREDITS :

   NOAA       Earth
Advisory